Home > Products > Valid Products > TAF

000
FTUS43 KLBF 280000 AAA
TAFLBF
TAF AMD
KLBF 280002Z 2800/2824 04012KT P6SM BKN100
     FM280400 VRB06KT P6SM SCT250
     FM281800 19012G20KT P6SM SCT250=



000
FTUS43 KLBF 272300
TAFVTN
TAF
KVTN 272320Z 2800/2824 34011KT P6SM OVC090
     FM280200 VRB06KT P6SM BKN250
     FM281800 19012G20KT P6SM SCT250=



000
FTUS43 KLBF 272300
TAFLBF
TAF
KLBF 272320Z 2800/2824 34009KT P6SM BKN090 OVC250
     FM280400 VRB06KT P6SM SCT250
     FM281800 19012G20KT P6SM SCT250=



000
FTUS43 KLBF 272300
TAFLBF
TAF
KLBF 272320Z 2800/2824 34009KT P6SM BKN090 OVC250
     FM280400 VRB06KT P6SM SCT250
     FM281800 19012G20KT P6SM SCT250=



000
FTUS43 KLBF 272300
TAFVTN
TAF
KVTN 272320Z 2800/2824 34011KT P6SM OVC090
     FM280200 VRB06KT P6SM BKN250
     FM281800 19012G20KT P6SM SCT250=



000
FTUS43 KLBF 271700
TAFLBF
TAF
KLBF 271735Z 2718/2818 22010KT P6SM SCT015 BKN080
      TEMPO 2718/2719 BKN015
     FM272100 27008KT P6SM BKN120
     FM280000 32005KT P6SM BKN150
     FM280900 VRB03KT P6SM SCT250
     FM281500 19005KT P6SM SKC=



000
FTUS43 KLBF 271700
TAFVTN
TAF
KVTN 271735Z 2718/2818 19010KT P6SM BKN050 OVC080
     FM272000 29012G20KT P6SM OVC100
     FM280000 29005KT P6SM BKN100
     FM280500 VRB03KT P6SM BKN250
     FM281600 16007KT P6SM SCT250=



000
FTUS43 KLBF 271700
TAFLBF
TAF
KLBF 271735Z 2718/2818 22010KT P6SM SCT015 BKN080
      TEMPO 2718/2719 BKN015
     FM272100 27008KT P6SM BKN120
     FM280000 32005KT P6SM BKN150
     FM280900 VRB03KT P6SM SCT250
     FM281500 19005KT P6SM SKC=



000
FTUS43 KLBF 271700
TAFVTN
TAF
KVTN 271735Z 2718/2818 19010KT P6SM BKN050 OVC080
     FM272000 29012G20KT P6SM OVC100
     FM280000 29005KT P6SM BKN100
     FM280500 VRB03KT P6SM BKN250
     FM281600 16007KT P6SM SCT250=



000
FTUS43 KLBF 271600 AAB
TAFLBF
TAF AMD
KLBF 271648Z 2717/2812 20006KT P6SM SCT015 OVC040
      TEMPO 2717/2718 BKN015
     FM271800 21010KT P6SM BKN060 BKN120
     FM272100 27008KT P6SM BKN120
     FM280000 32005KT P6SM SCT150=



000
FTUS43 KLBF 271300 AAA
TAFLBF
TAF AMD
KLBF 271352Z 2714/2812 18006KT P6SM SCT015 OVC040
      TEMPO 2714/2716 BKN015
     FM271800 21010KT P6SM BKN060 BKN120
     FM272100 27008KT P6SM BKN120
     FM280000 32005KT P6SM SCT150=



000
FTUS43 KLBF 271300 AAA
TAFLBF
TAF AMD
KLBF 271352Z 2714/2812 18006KT P6SM SCT015 OVC040
      TEMPO 2714/2716 BKN015
     FM271800 21010KT P6SM BKN060 BKN120
     FM272100 27008KT P6SM BKN120
     FM280000 32005KT P6SM SCT150=



000
FTUS43 KLBF 271100 CCA
TAFLBF
TAF COR
KLBF 271130Z 2712/2812 18006KT P6SM SCT020 OVC040
      TEMPO 2712/2713 5SM -SHSN OVC020
     FM271800 21010KT P6SM BKN060 BKN120
     FM272100 27008KT P6SM BKN120
     FM280000 32005KT P6SM SCT150=



000
FTUS43 KLBF 271100 CCA
TAFLBF
TAF COR
KLBF 271130Z 2712/2812 18006KT P6SM SCT020 OVC040
      TEMPO 2712/2713 5SM -SHSN OVC020
     FM271800 21010KT P6SM BKN060 BKN120
     FM272100 27008KT P6SM BKN120
     FM280000 32005KT P6SM SCT150=



000
FTUS43 KLBF 271100
TAFVTN
TAF
KVTN 271121Z 2712/2812 19010KT P6SM OVC060
      TEMPO 2712/2714 6SM -RASN BKN012 OVC040
     FM272000 27010KT P6SM SCT020 OVC060
     FM272200 32012G18KT P6SM BKN120
     FM280000 29005KT P6SM BKN100=



000
FTUS43 KLBF 271100
TAFLBF
TAF
KLBF 271121Z 2712/2812 18006KT P6SM SCT020 OVC040
     FM271800 21010KT P6SM BKN060 BKN120
     FM272100 27008KT P6SM BKN120
     FM280000 32005KT P6SM SCT150=



000
FTUS43 KLBF 271000 AAA
TAFVTN
TAF AMD
KVTN 271013Z 2710/2806 19004KT P6SM OVC060
      TEMPO 2710/2714 6SM -RASN BKN012 OVC040
     FM271600 20012KT P6SM SCT012 OVC060
     FM271800 32014G22KT P6SM OVC070
     FM280000 36008KT P6SM OVC100=



000
FTUS43 KLBF 271000 AAA
TAFVTN
TAF AMD
KVTN 271013Z 2710/2806 19004KT P6SM OVC060
      TEMPO 2710/2714 6SM -RASN BKN012 OVC040
     FM271600 20012KT P6SM SCT012 OVC060
     FM271800 32014G22KT P6SM OVC070
     FM280000 36008KT P6SM OVC100=



000
FTUS43 KLBF 271000 AAB
TAFLBF
TAF AMD
KLBF 271005Z 2710/2806 10006KT P6SM OVC020
     FM271400 21012KT P6SM SCT020 OVC040
     FM272000 30012G19KT P6SM SCT120 BKN250
     FM280000 33010KT P6SM SCT070 BKN150=



000
FTUS43 KLBF 270800 AAA
TAFLBF
TAF AMD
KLBF 270806Z 2708/2806 10006KT P6SM OVC015
      TEMPO 2708/2710 4SM -SHSN OVC015
     FM271400 21012KT P6SM SCT012 OVC040
     FM272000 30012G19KT P6SM SCT120 BKN250
     FM280000 33010KT P6SM SCT070 BKN150=



000
FTUS43 KLBF 270500
TAFLBF
TAF
KLBF 270520Z 2706/2806 08011KT P6SM OVC060
     FM271200 17005KT P6SM SCT012 OVC040
      TEMPO 2712/2716 6SM -RASN BKN012
     FM271600 21012KT P6SM SCT012 OVC040
     FM272000 30012G19KT P6SM SCT120 BKN250
     FM280000 33010KT P6SM SCT070 BKN150=



000
FTUS43 KLBF 270500
TAFVTN
TAF
KVTN 270520Z 2706/2806 VRB06KT P6SM OVC015
      TEMPO 2706/2708 SCT015 OVC040
     FM270800 VRB06KT P6SM SCT012 OVC040
      TEMPO 2710/2714 6SM -RASN BKN012 OVC040
     FM271600 20012KT P6SM SCT012 OVC060
     FM271800 32014G22KT P6SM OVC070
     FM280000 36008KT P6SM OVC100=



000
FTUS43 KLBF 270500
TAFLBF
TAF
KLBF 270520Z 2706/2806 08011KT P6SM OVC060
     FM271200 17005KT P6SM SCT012 OVC040
      TEMPO 2712/2716 6SM -RASN BKN012
     FM271600 21012KT P6SM SCT012 OVC040
     FM272000 30012G19KT P6SM SCT120 BKN250
     FM280000 33010KT P6SM SCT070 BKN150=



000
FTUS43 KLBF 270500
TAFVTN
TAF
KVTN 270520Z 2706/2806 VRB06KT P6SM OVC015
      TEMPO 2706/2708 SCT015 OVC040
     FM270800 VRB06KT P6SM SCT012 OVC040
      TEMPO 2710/2714 6SM -RASN BKN012 OVC040
     FM271600 20012KT P6SM SCT012 OVC060
     FM271800 32014G22KT P6SM OVC070
     FM280000 36008KT P6SM OVC100=



000
FTUS43 KLBF 270400 CCA
TAFVTN
TAF COR
KVTN 270407Z 2704/2724 VRB06KT P6SM OVC015
      TEMPO 2704/2708 SCT015 OVC040
     FM270800 VRB06KT P6SM SCT012 OVC040
      TEMPO 2710/2714 6SM -RASN BKN012 OVC040
     FM271600 17010KT P6SM SCT012 OVC040=



000
FTUS43 KLBF 270400 AAC
TAFVTN
TAF AMD
KVTN 270402Z 2704/2724 VRB06KT P6SM OVC018
     FM270800 VRB06KT P6SM SCT012 OVC040
      TEMPO 2710/2714 6SM -RASN BKN012 OVC040
     FM271600 17010KT P6SM SCT012 OVC040=



000
FTUS43 KLBF 270100 AAB
TAFVTN
TAF AMD
KVTN 270101Z 2701/2724 04011KT P6SM SCT014 OVC029
     FM270300 VRB06KT P6SM SCT012 OVC029
      TEMPO 2710/2714 4SM -RASN BR BKN012 OVC040
     FM271600 17010KT P6SM SCT012 OVC040=



000
FTUS43 KLBF 270000 AAA
TAFVTN
TAF AMD
KVTN 270058Z 2701/2724 04011KT P6SM SCT014 OVC040
     FM270300 VRB06KT P6SM SCT012 OVC040
      TEMPO 2710/2714 4SM -RASN BR BKN012 OVC040
     FM271600 17010KT P6SM SCT012 OVC040=



000
FTUS43 KLBF 270000 AAA
TAFVTN
TAF AMD
KVTN 270058Z 2701/2724 04011KT P6SM SCT014 OVC040
     FM270300 VRB06KT P6SM SCT012 OVC040
      TEMPO 2710/2714 4SM -RASN BR BKN012 OVC040
     FM271600 17010KT P6SM SCT012 OVC040=



000
FTUS43 KLBF 270000 AAA
TAFLBF
TAF AMD
KLBF 270008Z 2700/2724 36014G21KT P6SM OVC070
     FM270300 VRB06KT P6SM OVC040
     FM271200 17005KT P6SM -RASN OVC012
     FM271600 18009KT P6SM SCT012 OVC040=



000
FTUS43 KLBF 270000 AAA
TAFLBF
TAF AMD
KLBF 270008Z 2700/2724 36014G21KT P6SM OVC070
     FM270300 VRB06KT P6SM OVC040
     FM271200 17005KT P6SM -RASN OVC012
     FM271600 18009KT P6SM SCT012 OVC040=



000
FTUS43 KLBF 262300
TAFLBF
TAF
KLBF 262320Z 2700/2724 33014G21KT P6SM OVC070
     FM270300 VRB06KT P6SM OVC040
     FM271200 17005KT P6SM -RASN OVC012
     FM271600 18009KT P6SM SCT012 OVC040=



000
FTUS43 KLBF 262300
TAFLBF
TAF
KLBF 262320Z 2700/2724 33014G21KT P6SM OVC070
     FM270300 VRB06KT P6SM OVC040
     FM271200 17005KT P6SM -RASN OVC012
     FM271600 18009KT P6SM SCT012 OVC040=



000
FTUS43 KLBF 262300
TAFVTN
TAF
KVTN 262320Z 2700/2724 04011KT P6SM SCT014 OVC040
      TEMPO 2700/2702 BKN014
     FM270300 VRB06KT P6SM SCT012 OVC040
      TEMPO 2710/2714 4SM -RASN BR BKN012 OVC040
     FM271600 17010KT P6SM SCT012 OVC040=



000
FTUS43 KLBF 262300
TAFVTN
TAF
KVTN 262320Z 2700/2724 04011KT P6SM SCT014 OVC040
      TEMPO 2700/2702 BKN014
     FM270300 VRB06KT P6SM SCT012 OVC040
      TEMPO 2710/2714 4SM -RASN BR BKN012 OVC040
     FM271600 17010KT P6SM SCT012 OVC040=



000
FTUS43 KLBF 262100 AAA
TAFVTN
TAF AMD
KVTN 262123Z 2621/2718 18006KT P6SM SCT012 BKN035
      TEMPO 2621/2701 BKN012
     FM270900 VRB03KT P6SM SCT020 BKN040
     FM271500 17010KT 4SM -RASN BKN020=



000
FTUS43 KLBF 261700
TAFLBF
TAF
KLBF 261722Z 2618/2718 21010KT P6SM BKN090
     FM261900 32019G28KT P6SM BKN070
     FM270000 35015KT P6SM OVC060
     FM270300 VRB04KT P6SM OVC040
     FM271200 17005KT P6SM -RASN OVC025
     FM271500 18009KT P6SM SCT025 OVC040=



000
FTUS43 KLBF 261700
TAFVTN
TAF
KVTN 261722Z 2618/2718 18006KT P6SM BKN050
     FM262000 01011KT P6SM SCT050
     FM270000 VRB03KT P6SM BKN050
     FM270900 VRB03KT P6SM SCT020 BKN040
     FM271500 17010KT 4SM -RASN BKN020=



000
FTUS43 KLBF 261700
TAFVTN
TAF
KVTN 261722Z 2618/2718 18006KT P6SM BKN050
     FM262000 01011KT P6SM SCT050
     FM270000 VRB03KT P6SM BKN050
     FM270900 VRB03KT P6SM SCT020 BKN040
     FM271500 17010KT 4SM -RASN BKN020=



000
FTUS43 KLBF 261700
TAFLBF
TAF
KLBF 261722Z 2618/2718 21010KT P6SM BKN090
     FM261900 32019G28KT P6SM BKN070
     FM270000 35015KT P6SM OVC060
     FM270300 VRB04KT P6SM OVC040
     FM271200 17005KT P6SM -RASN OVC025
     FM271500 18009KT P6SM SCT025 OVC040=



000
FTUS43 KLBF 261600 AAA
TAFVTN
TAF AMD
KVTN 261620Z 2616/2712 VRB05KT P6SM -RA BKN070
     FM261800 01012G18KT P6SM BKN040
     FM270000 03007KT P6SM SCT090 BKN150=



000
FTUS43 KLBF 261100
TAFLBF
TAF
KLBF 261120Z 2612/2712 33003KT P6SM SCT090
     FM261800 28012G18KT P6SM BKN090
     FM262100 33019G28KT P6SM OVC090
     FM270000 35015KT P6SM OVC090
     FM270300 04010KT P6SM OVC120
     FM270600 VRB06KT P6SM OVC120=



000
FTUS43 KLBF 261100
TAFVTN
TAF
KVTN 261120Z 2612/2712 22005KT P6SM BKN090
      TEMPO 2615/2618 5SM -SHRA OVC025
     FM261800 01012G18KT P6SM BKN040
     FM270000 03007KT P6SM SCT090 BKN150=



000
FTUS43 KLBF 260500
TAFLBF
TAF
KLBF 260520Z 2606/2706 VRB04KT P6SM SCT250
     FM261500 26012G19KT P6SM BKN070 OVC120
     FM261900 27014G25KT P6SM OVC070
     FM262200 32019G28KT P6SM OVC070
     FM270200 02014G23KT P6SM OVC070=



000
FTUS43 KLBF 260500
TAFVTN
TAF
KVTN 260520Z 2606/2706 VRB05KT P6SM SCT250
     FM261300 27012G19KT P6SM OVC035
      TEMPO 2614/2616 3SM -SHRA BKN021
     FM262000 34017G29KT P6SM SCT021
     FM270000 02013G20KT P6SM SCT040 BKN250=



000
FTUS43 KLBF 252300
TAFLBF
TAF
KLBF 252320Z 2600/2624 36013G19KT P6SM BKN200
     FM260200 VRB06KT P6SM SCT250
     FM261500 26012G19KT P6SM BKN070 OVC120
     FM261900 27014G25KT P6SM OVC050
     FM262200 32019G28KT P6SM OVC035=



000
FTUS43 KLBF 252300
TAFVTN
TAF
KVTN 252320Z 2600/2624 35012G21KT P6SM OVC200
     FM260100 33010KT P6SM SCT035 BKN250
     FM260400 VRB03KT P6SM BKN100
     FM261600 27012G19KT 3SM -SHRA BKN021
     FM262000 32017G29KT P6SM SCT021=



000
FTUS43 KLBF 252300
TAFLBF
TAF
KLBF 252320Z 2600/2624 36013G19KT P6SM BKN200
     FM260200 VRB06KT P6SM SCT250
     FM261500 26012G19KT P6SM BKN070 OVC120
     FM261900 27014G25KT P6SM OVC050
     FM262200 32019G28KT P6SM OVC035=



000
FTUS43 KLBF 252300
TAFVTN
TAF
KVTN 252320Z 2600/2624 35012G21KT P6SM OVC200
     FM260100 33010KT P6SM SCT035 BKN250
     FM260400 VRB03KT P6SM BKN100
     FM261600 27012G19KT 3SM -SHRA BKN021
     FM262000 32017G29KT P6SM SCT021=



000
FTUS43 KLBF 251800 AAA
TAFVTN
TAF AMD
KVTN 251859Z 2519/2618 34016G26KT P6SM BKN040
     FM252200 33014G24KT P6SM SCT035
     FM260100 33010KT P6SM SCT250
     FM260400 VRB03KT P6SM BKN100
     FM261600 30012G22KT P6SM BKN035=



000
FTUS43 KLBF 251800 AAA
TAFVTN
TAF AMD
KVTN 251859Z 2519/2618 34016G26KT P6SM BKN040
     FM252200 33014G24KT P6SM SCT035
     FM260100 33010KT P6SM SCT250
     FM260400 VRB03KT P6SM BKN100
     FM261600 30012G22KT P6SM BKN035=



000
FTUS43 KLBF 251700
TAFLBF
TAF
KLBF 251720Z 2518/2618 36014G22KT P6SM OVC070
     FM252300 36012KT P6SM BKN180
     FM260200 VRB03KT P6SM SCT090
     FM261700 29012G23KT P6SM BKN090=



000
FTUS43 KLBF 251700
TAFVTN
TAF
KVTN 251720Z 2518/2618 34016G26KT P6SM BKN030
     FM252200 33014G24KT P6SM SCT035
     FM260100 33010KT P6SM SCT250
     FM260400 VRB03KT P6SM BKN100
     FM261600 30012G22KT P6SM BKN035=



000
FTUS43 KLBF 251700
TAFVTN
TAF
KVTN 251720Z 2518/2618 34016G26KT P6SM BKN030
     FM252200 33014G24KT P6SM SCT035
     FM260100 33010KT P6SM SCT250
     FM260400 VRB03KT P6SM BKN100
     FM261600 30012G22KT P6SM BKN035=



000
FTUS43 KLBF 251700
TAFLBF
TAF
KLBF 251720Z 2518/2618 36014G22KT P6SM OVC070
     FM252300 36012KT P6SM BKN180
     FM260200 VRB03KT P6SM SCT090
     FM261700 29012G23KT P6SM BKN090=



000
FTUS43 KLBF 251100
TAFVTN
TAF
KVTN 251120Z 2512/2612 33012G18KT P6SM BKN018
     FM251400 33016G24KT P6SM BKN022
     FM251600 33017G25KT P6SM SCT030
     FM260100 33010KT P6SM SCT250=



000
FTUS43 KLBF 251100
TAFLBF
TAF
KLBF 251120Z 2512/2612 35012G18KT P6SM SCT070 OVC090
     FM251400 36014G22KT P6SM SCT050 OVC070
     FM251900 36016G24KT P6SM BKN150
     FM260100 36011KT P6SM SCT250=



000
FTUS43 KLBF 251000 AAA
TAFVTN
TAF AMD
KVTN 251029Z 2510/2606 33012G18KT P6SM BKN018
     FM251400 33016G24KT P6SM BKN022
     FM251600 33017G25KT P6SM SCT030
     FM260100 33012KT P6SM SCT080=



000
FTUS43 KLBF 250500
TAFVTN
TAF
KVTN 250520Z 2506/2606 VRB06KT P6SM OVC110
     FM250900 36012KT P6SM BKN035 OVC100
     FM251300 33012G21KT P6SM SCT030 BKN150
     FM251700 34018G29KT P6SM SCT080
     FM260100 33012KT P6SM SCT080=



000
FTUS43 KLBF 250500
TAFLBF
TAF
KLBF 250520Z 2506/2606 29007KT P6SM OVC100
     FM251100 35010KT P6SM SCT020 BKN070
     FM251400 36014G26KT P6SM BKN090
     FM260100 36012KT P6SM SCT090=



000
FTUS43 KLBF 250500
TAFLBF
TAF
KLBF 250520Z 2506/2606 29007KT P6SM OVC100
     FM251100 35010KT P6SM SCT020 BKN070
     FM251400 36014G26KT P6SM BKN090
     FM260100 36012KT P6SM SCT090=



000
FTUS43 KLBF 250500
TAFVTN
TAF
KVTN 250520Z 2506/2606 VRB06KT P6SM OVC110
     FM250900 36012KT P6SM BKN035 OVC100
     FM251300 33012G21KT P6SM SCT030 BKN150
     FM251700 34018G29KT P6SM SCT080
     FM260100 33012KT P6SM SCT080=



    US Dept of Commerce
    National Oceanic and Atmospheric Administration
    National Weather Service
    1325 East West Highway
    Silver Spring, MD 20910
    Page Author: NWS Internet Services Team
Disclaimer
Information Quality
Credits
Glossary
Privacy Policy
Freedom of Information Act (FOIA)
About Us
Career Opportunities